Time;durP1;ratioP1;P1;durP2;ratioP2;P2;SDS_P1;SDS_P2;PMS_P1;PMS_P2;Temp;Humidity;BMP_temperature;BMP_pressure;BME280_temperature;BME280_humidity;BME280_pressure;Samples;Min_cycle;Max_cycle;Signal;HPM_P1;HPM_P2
2022/03/26 00:01:41;;;;;;;155.55;58.05;;;1.90;68.60;;;;;;5052524;28;20033;-82
2022/03/26 00:04:07;;;;;;;140.52;53.80;;;1.90;67.90;;;;;;5052423;28;20025;-82
2022/03/26 00:06:32;;;;;;;121.07;49.55;;;1.80;68.00;;;;;;5052272;28;20029;-81
2022/03/26 00:08:58;;;;;;;111.30;49.15;;;1.80;68.30;;;;;;5053735;28;20099;-81
2022/03/26 00:11:24;;;;;;;112.32;52.42;;;1.70;68.40;;;;;;5052403;28;20036;-77
2022/03/26 00:13:50;;;;;;;92.05;44.78;;;1.70;68.90;;;;;;5052353;28;20017;-77
2022/03/26 00:16:15;;;;;;;96.20;42.65;;;1.60;69.60;;;;;;5053421;28;20070;-82
2022/03/26 00:18:41;;;;;;;95.97;42.97;;;1.50;69.90;;;;;;5052298;28;20387;-81
2022/03/26 00:21:07;;;;;;;121.18;49.47;;;1.50;69.40;;;;;;5053456;28;20040;-78
2022/03/26 00:23:33;;;;;;;122.20;51.28;;;1.40;70.00;;;;;;5053568;28;20098;-82
2022/03/26 00:25:59;;;;;;;82.97;37.00;;;1.30;70.90;;;;;;5052130;28;20033;-82
2022/03/26 00:28:25;;;;;;;68.07;33.65;;;1.20;72.00;;;;;;5051941;28;20111;-80
2022/03/26 00:30:51;;;;;;;72.45;36.60;;;1.10;74.10;;;;;;5052125;28;20025;-77
2022/03/26 00:33:17;;;;;;;77.50;34.38;;;1.00;74.90;;;;;;5053295;28;20036;-77
2022/03/26 00:35:43;;;;;;;82.45;36.40;;;0.90;76.10;;;;;;5051954;28;20025;-81
2022/03/26 00:38:09;;;;;;;79.72;39.35;;;0.90;76.70;;;;;;5051622;28;20478;-77
2022/03/26 00:40:35;;;;;;;81.13;39.17;;;0.80;77.40;;;;;;5051882;28;20140;-77
2022/03/26 00:43:01;;;;;;;72.40;36.90;;;0.80;78.00;;;;;;5051893;28;20036;-80
2022/03/26 00:45:29;;;;;;;87.75;38.72;;;0.70;78.60;;;;;;5052000;28;20421;-80
2022/03/26 00:47:59;;;;;;;90.82;42.45;;;0.70;78.00;;;;;;5051316;28;20035;-80
2022/03/26 00:50:24;;;;;;;100.47;43.67;;;0.60;77.00;;;;;;5051878;28;20104;-77
2022/03/26 00:52:50;;;;;;;97.72;43.47;;;0.60;76.00;;;;;;5053150;28;20063;-77
2022/03/26 00:55:15;;;;;;;102.28;43.50;;;0.50;75.60;;;;;;5051907;28;20049;-80
2022/03/26 00:57:41;;;;;;;102.35;44.50;;;0.50;75.30;;;;;;5051047;28;20025;-80
2022/03/26 01:00:08;;;;;;;99.70;45.53;;;0.50;75.20;;;;;;5051663;28;20040;-81
2022/03/26 01:02:34;;;;;;;103.00;45.40;;;0.50;74.80;;;;;;5052875;28;20049;-77
2022/03/26 01:05:00;;;;;;;112.65;47.97;;;0.40;75.00;;;;;;5051654;28;20450;-77
2022/03/26 01:07:26;;;;;;;97.53;43.33;;;0.40;75.90;;;;;;5052816;28;20078;-81
2022/03/26 01:09:55;;;;;;;102.30;48.10;;;0.40;75.50;;;;;;5052882;28;20108;-78
2022/03/26 01:12:22;;;;;;;96.18;45.05;;;0.40;75.30;;;;;;5051546;28;20089;-81
2022/03/26 01:14:49;;;;;;;108.85;49.22;;;0.30;76.10;;;;;;5051781;28;20025;-78
2022/03/26 01:17:15;;;;;;;87.13;38.80;;;0.30;76.30;;;;;;5051452;28;20025;-81
2022/03/26 01:19:41;;;;;;;74.57;35.28;;;0.30;77.20;;;;;;5051578;28;20033;-81
2022/03/26 01:22:07;;;;;;;74.97;35.00;;;0.20;78.90;;;;;;5051406;28;20394;-81
2022/03/26 01:24:32;;;;;;;75.38;34.97;;;0.10;80.90;;;;;;5052878;28;20441;-78
2022/03/26 01:26:58;;;;;;;69.03;32.15;;;0.00;82.40;;;;;;5051458;28;20107;-81
2022/03/26 01:29:24;;;;;;;80.90;38.13;;;0.00;83.90;;;;;;5051434;28;20052;-77
2022/03/26 01:31:50;;;;;;;89.65;41.20;;;0.00;84.60;;;;;;5052507;28;20032;-77
2022/03/26 01:34:16;;;;;;;103.80;44.70;;;-0.10;84.00;;;;;;5052650;28;20099;-77
2022/03/26 01:36:42;;;;;;;107.05;46.67;;;-0.10;82.30;;;;;;5052631;28;20023;-77
2022/03/26 01:39:08;;;;;;;104.85;46.08;;;-0.10;80.70;;;;;;5052521;28;20100;-81
2022/03/26 01:41:34;;;;;;;123.38;51.97;;;-0.20;78.80;;;;;;5051214;28;20474;-77
2022/03/26 01:44:00;;;;;;;129.25;53.67;;;-0.10;78.30;;;;;;5052491;28;20071;-77
2022/03/26 01:46:26;;;;;;;134.93;53.45;;;-0.20;78.00;;;;;;5034679;28;20065;-78
2022/03/26 01:48:52;;;;;;;135.18;58.45;;;-0.20;77.90;;;;;;5052291;28;20076;-80
2022/03/26 01:51:19;;;;;;;122.70;54.53;;;-0.20;77.60;;;;;;5051223;28;20025;-77
2022/03/26 01:53:50;;;;;;;125.50;55.17;;;-0.20;77.70;;;;;;5052524;28;20066;-77
2022/03/26 01:56:17;;;;;;;137.38;55.30;;;-0.20;78.10;;;;;;5051073;28;20032;-76
2022/03/26 01:58:43;;;;;;;129.88;52.67;;;-0.20;78.60;;;;;;5052249;28;20017;-81
2022/03/26 02:01:09;;;;;;;131.88;56.67;;;-0.20;78.40;;;;;;5051090;28;20032;-81
2022/03/26 02:03:35;;;;;;;118.88;53.67;;;-0.20;78.90;;;;;;5052396;28;20036;-81
2022/03/26 02:06:01;;;;;;;116.93;49.20;;;-0.30;79.00;;;;;;5051020;28;20502;-78
2022/03/26 02:08:27;;;;;;;115.30;50.03;;;-0.20;79.10;;;;;;5050818;28;20463;-77
2022/03/26 02:10:53;;;;;;;122.78;51.28;;;-0.30;80.00;;;;;;5054456;28;20035;-78
2022/03/26 02:13:19;;;;;;;119.72;50.58;;;-0.30;80.60;;;;;;5055948;28;20021;-81
2022/03/26 02:15:45;;;;;;;112.38;49.03;;;-0.30;80.70;;;;;;5054668;28;20070;-81
2022/03/26 02:18:11;;;;;;;106.25;47.13;;;-0.30;80.40;;;;;;5054310;28;20017;-77
2022/03/26 02:20:37;;;;;;;99.78;45.47;;;-0.30;80.40;;;;;;5055856;28;20033;-80
2022/03/26 02:23:03;;;;;;;98.00;43.67;;;-0.20;80.70;;;;;;5054553;28;20021;-80
2022/03/26 02:25:29;;;;;;;91.75;41.88;;;-0.20;81.80;;;;;;5054570;28;20025;-80
2022/03/26 02:27:54;;;;;;;90.45;40.35;;;-0.30;82.90;;;;;;5054332;28;20047;-78
2022/03/26 02:30:21;;;;;;;77.95;39.10;;;-0.30;83.90;;;;;;5055321;28;20024;-78
2022/03/26 02:32:47;;;;;;;80.20;36.50;;;-0.40;85.40;;;;;;5055630;28;20039;-80
2022/03/26 02:35:13;;;;;;;91.18;42.15;;;-0.40;86.70;;;;;;5054244;28;20025;-80
2022/03/26 02:37:38;;;;;;;93.07;42.83;;;-0.30;87.20;;;;;;5054193;28;20021;-77
2022/03/26 02:40:07;;;;;;;90.18;42.97;;;-0.30;85.90;;;;;;5053878;28;20066;-77
2022/03/26 02:42:35;;;;;;;92.65;44.95;;;-0.30;86.60;;;;;;5055447;28;20071;-77
2022/03/26 02:45:01;;;;;;;91.50;43.35;;;-0.40;85.10;;;;;;5054186;28;20024;-80
2022/03/26 02:47:27;;;;;;;88.97;41.40;;;-0.40;84.50;;;;;;5055417;28;20029;-80
2022/03/26 02:49:52;;;;;;;89.45;39.95;;;-0.40;84.40;;;;;;5053774;28;20494;-77
2022/03/26 02:52:18;;;;;;;89.07;38.80;;;-0.40;85.00;;;;;;5055202;28;20021;-77
2022/03/26 02:54:44;;;;;;;88.57;41.80;;;-0.40;84.80;;;;;;5054005;28;20013;-80
2022/03/26 02:57:09;;;;;;;92.32;42.78;;;-0.40;84.70;;;;;;5053831;28;20020;-81
2022/03/26 02:59:35;;;;;;;90.93;39.17;;;-0.40;85.40;;;;;;5053611;28;20029;-81
2022/03/26 03:02:01;;;;;;;94.82;43.60;;;-0.40;85.90;;;;;;5053620;28;20033;-76
2022/03/26 03:04:27;;;;;;;97.05;42.42;;;-0.40;85.60;;;;;;5055221;28;20386;-77
2022/03/26 03:06:53;;;;;;;85.25;39.15;;;-0.40;85.60;;;;;;5054620;28;20009;-77
2022/03/26 03:09:18;;;;;;;97.70;42.97;;;-0.50;85.50;;;;;;5054794;28;20447;-80
2022/03/26 03:11:44;;;;;;;95.22;41.28;;;-0.50;85.40;;;;;;5053642;28;20111;-80
2022/03/26 03:14:10;;;;;;;101.45;43.95;;;-0.50;85.00;;;;;;5053514;28;20064;-77
2022/03/26 03:16:37;;;;;;;104.78;45.38;;;-0.50;84.00;;;;;;5054778;28;20036;-80
2022/03/26 03:19:03;;;;;;;93.60;42.55;;;-0.50;83.80;;;;;;5053520;28;20021;-80
2022/03/26 03:21:29;;;;;;;103.00;43.10;;;-0.50;84.10;;;;;;5052742;28;20509;-77
2022/03/26 03:23:54;;;;;;;94.93;43.70;;;-0.50;83.50;;;;;;5054696;28;20021;-78
2022/03/26 03:26:20;;;;;;;90.25;42.45;;;-0.50;84.50;;;;;;5053412;28;20482;-78
2022/03/26 03:28:46;;;;;;;90.07;42.45;;;-0.60;84.90;;;;;;5053318;28;20025;-79
2022/03/26 03:31:12;;;;;;;92.32;42.25;;;-0.60;85.00;;;;;;5052965;28;20474;-77
2022/03/26 03:33:37;;;;;;;89.68;41.45;;;-0.70;85.60;;;;;;5054298;28;20360;-77
2022/03/26 03:36:04;;;;;;;94.20;41.58;;;-0.70;86.40;;;;;;5052923;28;20032;-80
2022/03/26 03:38:29;;;;;;;91.32;43.22;;;-0.70;86.60;;;;;;5053064;28;20548;-80
2022/03/26 03:40:55;;;;;;;103.22;44.15;;;-0.70;86.50;;;;;;5054032;28;20033;-80
2022/03/26 03:43:22;;;;;;;102.00;45.95;;;-0.80;86.30;;;;;;5053029;28;20017;-80
2022/03/26 03:45:48;;;;;;;104.63;46.30;;;-0.80;86.70;;;;;;5053037;28;20425;-80
2022/03/26 03:48:14;;;;;;;112.28;47.58;;;-0.90;86.30;;;;;;5052691;28;20098;-77
2022/03/26 03:50:39;;;;;;;111.72;46.33;;;-0.90;86.00;;;;;;5052717;28;20025;-80
2022/03/26 03:53:05;;;;;;;104.97;47.50;;;-0.90;85.60;;;;;;5052888;28;20033;-81
2022/03/26 03:55:30;;;;;;;105.35;48.20;;;-0.90;85.30;;;;;;5052933;28;20108;-77
2022/03/26 03:57:56;;;;;;;105.10;45.63;;;-1.00;85.80;;;;;;5053806;28;20033;-77
2022/03/26 04:00:22;;;;;;;102.68;43.13;;;-1.00;86.30;;;;;;5053642;28;20043;-77
2022/03/26 04:02:48;;;;;;;102.50;46.15;;;-0.90;86.50;;;;;;5053883;28;20025;-77
2022/03/26 04:05:14;;;;;;;107.25;45.75;;;-1.00;86.70;;;;;;5053886;28;20025;-80
2022/03/26 04:07:41;;;;;;;96.80;44.95;;;-1.00;87.80;;;;;;5052546;28;20021;-80
2022/03/26 04:10:09;;;;;;;96.65;42.97;;;-1.00;88.20;;;;;;5052111;28;20471;-78
2022/03/26 04:12:36;;;;;;;96.68;44.92;;;-1.10;88.20;;;;;;5053799;28;20036;-77
2022/03/26 04:15:03;;;;;;;103.38;44.05;;;-1.10;88.70;;;;;;5052430;28;20032;-80
2022/03/26 04:17:29;;;;;;;104.32;46.13;;;-1.00;88.60;;;;;;5052440;28;20055;-77
2022/03/26 04:19:55;;;;;;;98.60;42.92;;;-1.10;88.60;;;;;;5053443;28;20029;-77
2022/03/26 04:22:20;;;;;;;93.75;42.70;;;-1.10;89.10;;;;;;5053214;28;20025;-77
2022/03/26 04:24:47;;;;;;;95.88;43.55;;;-1.10;90.00;;;;;;5052263;28;20028;-80
2022/03/26 04:27:12;;;;;;;103.15;44.53;;;-1.10;90.70;;;;;;5052201;28;20025;-80
2022/03/26 04:29:38;;;;;;;83.95;41.75;;;-1.20;91.30;;;;;;5052227;28;20017;-77
2022/03/26 04:32:04;;;;;;;97.72;42.83;;;-1.20;91.60;;;;;;5052412;28;20100;-77
2022/03/26 04:34:30;;;;;;;93.85;41.58;;;-1.20;91.30;;;;;;5053480;28;20017;-80
2022/03/26 04:36:55;;;;;;;92.63;38.58;;;-1.30;90.80;;;;;;5053295;28;20036;-80
2022/03/26 04:39:21;;;;;;;92.97;40.42;;;-1.30;89.90;;;;;;5052018;28;20017;-80
2022/03/26 04:41:47;;;;;;;97.47;39.92;;;-1.30;88.40;;;;;;5051560;28;20040;-80
2022/03/26 04:44:13;;;;;;;92.97;42.45;;;-1.30;87.70;;;;;;5053284;28;20025;-79
2022/03/26 04:46:39;;;;;;;93.32;44.58;;;-1.30;87.70;;;;;;5051917;28;20162;-80
2022/03/26 04:49:05;;;;;;;90.65;43.10;;;-1.20;87.70;;;;;;5051735;28;20066;-78
2022/03/26 04:51:32;;;;;;;98.55;44.80;;;-1.30;87.90;;;;;;5053086;28;20065;-77
2022/03/26 04:53:57;;;;;;;98.50;42.72;;;-1.30;88.80;;;;;;5051763;28;20508;-77
2022/03/26 04:56:23;;;;;;;90.82;44.15;;;-1.30;89.70;;;;;;5053055;28;20033;-79
2022/03/26 04:58:48;;;;;;;96.13;43.97;;;-1.30;89.70;;;;;;5053082;28;20018;-76
2022/03/26 05:01:15;;;;;;;99.80;47.30;;;-1.30;90.40;;;;;;5052645;28;20486;-81
2022/03/26 05:03:44;;;;;;;92.78;43.08;;;-1.30;90.00;;;;;;5051788;28;20032;-80
2022/03/26 05:06:09;;;;;;;96.35;43.60;;;-1.20;89.70;;;;;;5051285;28;20117;-77
2022/03/26 05:08:35;;;;;;;90.55;44.22;;;-1.20;89.50;;;;;;5051685;28;20498;-80
2022/03/26 05:11:00;;;;;;;101.25;44.67;;;-1.20;90.30;;;;;;5052759;28;20032;-78
2022/03/26 05:13:26;;;;;;;99.82;44.13;;;-1.10;90.80;;;;;;5052890;28;20057;-80
2022/03/26 05:15:52;;;;;;;97.95;46.03;;;-1.00;91.10;;;;;;5051567;28;20112;-77
2022/03/26 05:18:17;;;;;;;88.90;44.03;;;-1.00;91.30;;;;;;5051581;28;20490;-80
2022/03/26 05:20:44;;;;;;;95.75;43.28;;;-1.00;91.60;;;;;;5051527;28;20398;-77
2022/03/26 05:23:09;;;;;;;93.45;39.85;;;-0.90;91.90;;;;;;5051385;28;20119;-77
2022/03/26 05:25:35;;;;;;;90.70;44.05;;;-0.90;92.60;;;;;;5051569;28;20063;-77
2022/03/26 05:28:01;;;;;;;88.82;42.42;;;-0.80;92.90;;;;;;5051290;28;20025;-80
2022/03/26 05:30:27;;;;;;;90.35;43.50;;;-0.70;92.80;;;;;;5052746;28;20070;-77
2022/03/26 05:32:52;;;;;;;84.45;38.50;;;-0.70;92.10;;;;;;5052449;28;20025;-80
2022/03/26 05:35:18;;;;;;;95.05;43.38;;;-0.70;93.10;;;;;;5051362;28;20017;-77
2022/03/26 05:37:46;;;;;;;95.97;42.05;;;-0.70;93.60;;;;;;5051342;28;20024;-77
2022/03/26 05:40:13;;;;;;;93.18;42.95;;;-0.60;93.30;;;;;;5051235;28;20033;-81
2022/03/26 05:42:39;;;;;;;98.47;45.80;;;-0.40;92.40;;;;;;5031976;28;20025;-80
2022/03/26 05:45:06;;;;;;;90.47;45.75;;;-0.30;91.90;;;;;;5034094;28;20422;-81
2022/03/26 05:47:33;;;;;;;92.72;46.38;;;-0.20;91.70;;;;;;5034003;28;20033;-81
2022/03/26 05:49:58;;;;;;;107.78;49.85;;;-0.10;91.50;;;;;;5033717;28;20498;-77
2022/03/26 05:52:25;;;;;;;119.05;52.80;;;0.10;90.80;;;;;;5044302;28;20021;-79
2022/03/26 05:54:50;;;;;;;105.80;48.80;;;0.20;90.70;;;;;;5055280;28;20045;-82
2022/03/26 05:57:16;;;;;;;107.07;52.22;;;0.40;90.50;;;;;;5054170;28;20047;-81
2022/03/26 05:59:41;;;;;;;110.35;51.65;;;0.60;90.70;;;;;;5054016;28;20033;-77
2022/03/26 06:02:11;;;;;;;102.32;50.92;;;0.70;90.30;;;;;;5053072;28;20082;-77
2022/03/26 06:04:36;;;;;;;112.20;54.30;;;0.90;90.60;;;;;;5054060;28;20124;-77
2022/03/26 06:07:02;;;;;;;109.47;52.47;;;1.10;89.50;;;;;;5046056;28;20104;-76
2022/03/26 06:09:28;;;;;;;111.32;52.55;;;1.30;88.20;;;;;;5034724;28;20483;-77
2022/03/26 06:11:55;;;;;;;101.35;53.72;;;1.50;87.50;;;;;;5040183;28;20112;-77
2022/03/26 06:14:21;;;;;;;110.57;55.95;;;1.70;86.50;;;;;;5045017;28;20132;-77
2022/03/26 06:16:47;;;;;;;118.18;54.28;;;1.90;86.40;;;;;;5043705;28;20482;-78
2022/03/26 06:19:13;;;;;;;118.07;56.10;;;2.10;85.00;;;;;;5043361;28;20025;-77
2022/03/26 06:21:39;;;;;;;113.38;55.25;;;2.20;84.00;;;;;;5043715;28;20502;-77
2022/03/26 06:24:05;;;;;;;110.82;54.65;;;2.40;84.10;;;;;;5039266;28;20041;-77
2022/03/26 06:26:31;;;;;;;106.00;53.72;;;2.50;83.50;;;;;;5033899;28;20018;-77
2022/03/26 06:28:57;;;;;;;113.30;55.13;;;2.70;80.80;;;;;;5038519;28;20081;-77
2022/03/26 06:31:23;;;;;;;110.22;53.03;;;2.90;79.60;;;;;;5049714;28;20029;-77
2022/03/26 06:33:49;;;;;;;110.15;55.10;;;3.10;79.10;;;;;;5053049;28;20020;-77
2022/03/26 06:36:15;;;;;;;105.80;56.05;;;3.30;78.90;;;;;;5054693;28;20433;-77
2022/03/26 06:38:42;;;;;;;112.65;55.13;;;3.40;77.50;;;;;;5053631;28;20099;-77
2022/03/26 06:41:12;;;;;;;103.00;52.28;;;3.60;75.80;;;;;;5040477;28;20053;-78
2022/03/26 06:43:39;;;;;;;110.82;53.83;;;3.70;75.00;;;;;;5046004;28;20035;-76
2022/03/26 06:46:05;;;;;;;100.68;54.15;;;3.90;74.80;;;;;;5052629;28;21424;-77
2022/03/26 06:48:31;;;;;;;112.65;52.13;;;4.20;73.20;;;;;;5051465;28;20041;-76
2022/03/26 06:51:00;;;;;;;106.38;51.65;;;4.30;72.40;;;;;;5041147;28;20036;-78
2022/03/26 06:53:26;;;;;;;103.45;52.70;;;4.40;71.30;;;;;;5038227;28;20029;-76
2022/03/26 06:55:52;;;;;;;101.40;51.70;;;4.60;70.90;;;;;;5034952;28;20044;-76
2022/03/26 06:58:18;;;;;;;95.95;51.25;;;4.80;70.20;;;;;;5054538;28;20500;-76
2022/03/26 07:00:43;;;;;;;108.00;53.58;;;5.00;69.90;;;;;;5052286;28;20040;-76
2022/03/26 07:03:09;;;;;;;98.38;52.38;;;5.10;69.00;;;;;;5042361;28;20132;-76
2022/03/26 07:05:34;;;;;;;102.45;50.30;;;5.30;68.30;;;;;;5033055;28;20036;-77
2022/03/26 07:08:00;;;;;;;100.00;50.85;;;5.50;67.20;;;;;;5033886;28;20038;-76
2022/03/26 07:10:26;;;;;;;104.43;52.08;;;5.70;66.80;;;;;;5035468;28;20041;-77
2022/03/26 07:12:51;;;;;;;95.25;48.80;;;5.90;66.20;;;;;;5045160;28;20018;-77
2022/03/26 07:15:17;;;;;;;98.05;51.63;;;6.10;66.40;;;;;;5040957;28;20029;-77
2022/03/26 07:17:42;;;;;;;98.78;51.92;;;6.20;65.30;;;;;;5041731;28;20025;-77
2022/03/26 07:20:09;;;;;;;101.00;49.80;;;6.40;64.70;;;;;;5037915;28;20041;-78
2022/03/26 07:22:34;;;;;;;93.13;48.05;;;6.50;64.40;;;;;;5042629;28;20581;-76
2022/03/26 07:25:01;;;;;;;96.30;48.08;;;6.60;63.20;;;;;;5043549;28;20158;-79
2022/03/26 07:27:34;;;;;;;96.07;49.60;;;6.70;63.30;;;;;;5042036;28;20390;-78
2022/03/26 07:30:00;;;;;;;;;;;6.80;63.50;;;;;;5043892;28;20021;-78
2022/03/26 07:32:25;;;;;;;96.78;46.65;;;7.00;63.10;;;;;;5052489;28;20365;-78
2022/03/26 07:34:52;;;;;;;91.13;47.80;;;7.10;62.90;;;;;;5051943;28;20033;-78
2022/03/26 07:37:18;;;;;;;87.10;45.85;;;7.20;63.00;;;;;;5052325;28;20025;-78
2022/03/26 07:39:43;;;;;;;89.65;45.78;;;7.40;62.60;;;;;;5049657;28;20370;-78
2022/03/26 07:42:09;;;;;;;77.82;43.45;;;7.50;62.60;;;;;;5042554;28;20052;-78
2022/03/26 07:44:35;;;;;;;82.45;43.00;;;7.60;62.30;;;;;;5040155;28;20021;-78
2022/03/26 07:47:01;;;;;;;87.38;44.42;;;7.80;61.90;;;;;;5042832;28;20044;-78
2022/03/26 07:49:27;;;;;;;85.55;45.33;;;7.90;61.80;;;;;;5037215;28;20034;-78
2022/03/26 07:51:52;;;;;;;82.10;42.65;;;8.10;61.70;;;;;;5037185;28;20037;-78
2022/03/26 07:54:18;;;;;;;79.28;40.92;;;8.30;61.40;;;;;;5051818;28;20114;-79
2022/03/26 07:56:44;;;;;;;77.18;42.92;;;8.50;61.00;;;;;;5048757;28;20038;-79
2022/03/26 07:59:10;;;;;;;82.43;41.17;;;8.70;61.50;;;;;;5045391;28;20024;-79
2022/03/26 08:01:35;;;;;;;79.07;42.20;;;8.90;61.30;;;;;;5051742;28;20486;-78
2022/03/26 08:04:01;;;;;;;71.05;39.70;;;9.10;60.80;;;;;;5051502;28;20021;-79
2022/03/26 08:06:27;;;;;;;78.22;40.05;;;9.30;60.20;;;;;;5050964;28;20035;-79
2022/03/26 08:08:53;;;;;;;75.53;39.42;;;9.40;60.20;;;;;;5051386;28;20108;-79
2022/03/26 08:11:18;;;;;;;70.93;38.72;;;9.60;60.00;;;;;;5052772;28;20041;-79
2022/03/26 08:13:44;;;;;;;76.20;39.58;;;9.80;59.10;;;;;;5051712;28;20029;-79
2022/03/26 08:16:09;;;;;;;73.30;38.70;;;10.00;59.00;;;;;;5051849;28;20029;-78
2022/03/26 08:18:36;;;;;;;61.35;34.05;;;10.20;58.40;;;;;;5049449;28;20048;-79
2022/03/26 08:21:02;;;;;;;56.47;29.98;;;10.40;58.80;;;;;;5049873;28;20045;-79
2022/03/26 08:23:28;;;;;;;52.05;28.27;;;10.70;59.00;;;;;;5050765;28;20390;-79
2022/03/26 08:28:38;;;;;;;54.63;29.83;;;11.10;58.50;;;;;;5052336;28;20520;-79
2022/03/26 08:31:04;;;;;;;52.17;26.30;;;11.40;57.60;;;;;;5049975;28;20116;-80
2022/03/26 08:33:30;;;;;;;46.03;25.25;;;11.50;57.30;;;;;;5050778;28;20070;-80
2022/03/26 08:35:56;;;;;;;44.90;24.65;;;11.60;56.50;;;;;;5049832;28;20411;-80
2022/03/26 08:38:21;;;;;;;50.97;24.88;;;11.80;56.60;;;;;;5051939;28;20036;-79
2022/03/26 08:40:48;;;;;;;56.42;28.02;;;11.90;56.20;;;;;;5050203;28;20068;-80
2022/03/26 08:43:14;;;;;;;50.80;24.20;;;12.00;55.50;;;;;;5051516;28;20029;-79
2022/03/26 08:45:40;;;;;;;42.63;23.52;;;12.00;55.20;;;;;;5049890;28;20032;-79
2022/03/26 08:48:06;;;;;;;47.42;24.10;;;12.10;54.60;;;;;;5043609;28;20685;-78
2022/03/26 08:50:32;;;;;;;48.30;25.40;;;12.10;54.20;;;;;;5034900;28;20049;-79
2022/03/26 08:52:59;;;;;;;45.67;22.77;;;12.30;54.70;;;;;;5043587;28;20108;-78
2022/03/26 08:55:25;;;;;;;50.55;24.30;;;12.40;53.90;;;;;;5051080;28;20513;-78
2022/03/26 08:57:51;;;;;;;42.55;21.15;;;12.50;53.70;;;;;;5050296;28;20171;-80
2022/03/26 09:00:17;;;;;;;41.47;20.60;;;12.60;53.40;;;;;;5050650;28;20132;-79
2022/03/26 09:02:44;;;;;;;37.30;20.85;;;12.80;52.70;;;;;;5050439;28;20033;-80
2022/03/26 09:05:13;;;;;;;36.90;20.90;;;12.70;51.80;;;;;;5051767;28;20383;-79
2022/03/26 09:07:39;;;;;;;39.70;19.27;;;12.90;52.00;;;;;;5051624;28;20116;-79
2022/03/26 09:10:05;;;;;;;36.13;20.23;;;13.00;51.30;;;;;;5052013;28;20036;-78
2022/03/26 09:12:31;;;;;;;35.70;16.35;;;13.20;51.90;;;;;;5052148;28;20037;-80
2022/03/26 09:14:57;;;;;;;33.05;15.88;;;13.30;50.20;;;;;;5051206;28;20033;-78
2022/03/26 09:17:22;;;;;;;34.70;15.35;;;13.20;49.20;;;;;;5049382;28;20082;-79
2022/03/26 09:19:48;;;;;;;33.80;17.52;;;13.20;49.10;;;;;;5053010;28;20509;-79
2022/03/26 09:22:13;;;;;;;27.95;15.90;;;13.20;49.30;;;;;;5055055;28;20403;-79
2022/03/26 09:24:39;;;;;;;37.53;19.13;;;13.20;49.40;;;;;;5054605;28;20469;-79
2022/03/26 09:27:05;;;;;;;40.40;17.33;;;13.50;50.10;;;;;;5055102;28;20406;-79
2022/03/26 09:29:31;;;;;;;28.67;14.48;;;13.50;49.40;;;;;;5055310;28;20049;-80
2022/03/26 09:31:57;;;;;;;25.27;14.77;;;13.70;48.80;;;;;;5058124;28;20108;-89
2022/03/26 09:34:22;;;;;;;29.05;13.73;;;13.80;48.40;;;;;;5055553;28;20423;-83
2022/03/26 09:36:48;;;;;;;35.92;14.80;;;13.90;48.20;;;;;;5055292;28;20025;-80
2022/03/26 09:39:14;;;;;;;27.10;14.88;;;13.90;47.60;;;;;;5056794;28;20025;-80
2022/03/26 09:41:40;;;;;;;28.30;14.68;;;14.10;47.70;;;;;;5056456;28;20037;-81
2022/03/26 09:44:06;;;;;;;35.92;15.75;;;14.30;47.70;;;;;;5056282;28;20057;-83
2022/03/26 09:46:35;;;;;;;26.25;16.40;;;14.30;47.20;;;;;;5053149;28;20400;-80
2022/03/26 09:49:02;;;;;;;33.05;16.17;;;14.40;47.40;;;;;;5053973;28;20065;-86
2022/03/26 09:51:27;;;;;;;38.47;18.00;;;14.40;47.20;;;;;;5054193;28;20063;-83
2022/03/26 09:53:54;;;;;;;41.95;16.42;;;14.20;47.20;;;;;;5054315;28;20056;-79
2022/03/26 09:56:21;;;;;;;26.92;15.07;;;14.10;46.80;;;;;;5051621;28;20028;-81
2022/03/26 09:58:46;;;;;;;30.83;15.52;;;14.10;46.90;;;;;;5033988;28;20693;-81
2022/03/26 10:01:12;;;;;;;36.15;16.02;;;14.20;47.00;;;;;;5033624;28;20049;-79
2022/03/26 10:03:40;;;;;;;26.98;15.63;;;14.30;46.70;;;;;;5033693;28;20032;-80
2022/03/26 10:06:07;;;;;;;29.23;15.73;;;14.30;46.60;;;;;;5036269;28;20103;-79
2022/03/26 10:08:38;;;;;;;32.72;16.75;;;14.40;46.70;;;;;;5035918;28;20633;-80
2022/03/26 10:11:06;;;;;;;27.52;15.07;;;14.60;46.90;;;;;;5036139;28;20020;-80
2022/03/26 10:13:49;;;;;;;31.92;16.02;;;14.70;46.80;;;;;;5034355;28;20097;-79
2022/03/26 10:16:15;;;;;;;;;;;14.70;46.00;;;;;;5034989;28;20021;-79
2022/03/26 10:18:43;;;;;;;27.80;14.13;;;14.60;46.00;;;;;;5035260;28;19905;-79
2022/03/26 10:21:14;;;;;;;28.00;14.88;;;14.30;44.90;;;;;;5035679;28;20040;-80
2022/03/26 10:23:45;;;;;;;29.60;13.45;;;14.30;46.00;;;;;;5036543;28;20025;-79
2022/03/26 10:26:15;;;;;;;25.02;15.63;;;14.40;46.40;;;;;;5038880;28;20028;-80
2022/03/26 10:28:42;;;;;;;32.40;16.17;;;14.60;45.80;;;;;;5035720;28;20025;-79
2022/03/26 10:34:12;;;;;;;24.05;11.82;;;14.60;46.30;;;;;;5035581;28;20036;-80
2022/03/26 10:36:44;;;;;;;37.92;14.65;;;14.90;45.10;;;;;;5035262;28;20025;-79
2022/03/26 10:39:22;;;;;;;20.95;12.60;;;14.60;44.50;;;;;;5035182;28;20123;-80
2022/03/26 10:41:50;;;;;;;20.13;11.30;;;14.30;45.10;;;;;;5033905;28;20037;-79
2022/03/26 10:44:24;;;;;;;25.50;15.15;;;14.10;44.70;;;;;;5032075;28;20387;-78
2022/03/26 10:46:53;;;;;;;22.05;11.75;;;13.90;46.00;;;;;;5035138;28;20509;-78
2022/03/26 10:49:37;;;;;;;20.20;11.60;;;13.90;45.90;;;;;;5035374;28;20107;-79
2022/03/26 10:52:13;;;;;;;26.48;12.63;;;14.00;45.40;;;;;;5035148;28;20038;-79
2022/03/26 10:54:38;;;;;;;21.23;11.63;;;14.20;45.60;;;;;;5033955;28;20026;-79
2022/03/26 10:57:05;;;;;;;20.15;12.02;;;14.50;45.80;;;;;;5034955;28;20026;-80
2022/03/26 10:59:31;;;;;;;18.10;10.52;;;14.60;45.50;;;;;;5035098;28;20045;-80
2022/03/26 11:01:58;;;;;;;23.02;11.75;;;14.80;44.40;;;;;;5034841;28;20109;-78
2022/03/26 11:04:26;;;;;;;22.52;12.10;;;14.70;44.00;;;;;;5035049;28;20019;-79
2022/03/26 11:06:52;;;;;;;22.02;12.10;;;14.90;44.90;;;;;;5035030;28;20057;-79
2022/03/26 11:09:17;;;;;;;25.58;11.80;;;15.10;44.70;;;;;;5034908;28;20026;-79
2022/03/26 11:11:45;;;;;;;24.38;12.98;;;15.10;44.60;;;;;;5033635;28;20029;-79
2022/03/26 11:14:33;;;;;;;21.27;11.65;;;15.20;45.00;;;;;;5034715;28;20109;-79
2022/03/26 11:17:40;;;;;;;18.05;10.05;;;15.20;44.60;;;;;;5033396;28;20040;-80
2022/03/26 11:20:12;;;;;;;19.65;12.35;;;15.00;43.90;;;;;;5034429;28;20044;-79
2022/03/26 11:22:40;;;;;;;24.15;12.27;;;14.90;44.20;;;;;;5033380;28;20030;-78
2022/03/26 11:25:26;;;;;;;19.67;11.63;;;14.60;44.30;;;;;;5033333;28;20033;-79
2022/03/26 11:27:54;;;;;;;19.05;9.70;;;14.60;44.70;;;;;;5026263;28;20490;-79
2022/03/26 11:30:29;;;;;;;21.38;10.85;;;14.60;44.70;;;;;;5033150;28;20017;-79
2022/03/26 11:32:56;;;;;;;15.38;9.43;;;14.80;44.90;;;;;;5042859;28;20025;-78
2022/03/26 11:35:21;;;;;;;16.05;9.05;;;14.80;44.20;;;;;;5053212;28;20065;-75
2022/03/26 11:37:56;;;;;;;20.63;10.70;;;15.00;43.80;;;;;;5054317;28;20036;-74
2022/03/26 11:40:42;;;;;;;19.13;9.02;;;15.20;43.70;;;;;;5053900;28;20079;-73
2022/03/26 11:43:08;;;;;;;20.02;10.48;;;15.30;43.50;;;;;;5053117;28;20115;-74
2022/03/26 11:51:25;;;;;;;14.48;9.00;;;15.40;42.50;;;;;;5054138;28;20556;-75
2022/03/26 11:53:58;;;;;;;19.45;10.25;;;15.60;42.70;;;;;;5050782;28;20017;-75
2022/03/26 11:56:31;;;;;;;16.92;9.85;;;15.80;42.90;;;;;;5052187;28;20025;-75
2022/03/26 11:59:03;;;;;;;17.92;9.32;;;15.80;42.40;;;;;;5052609;28;20111;-79
2022/03/26 12:01:43;;;;;;;20.30;9.60;;;16.10;42.30;;;;;;5053631;28;20032;-75
2022/03/26 12:04:12;;;;;;;23.45;11.57;;;16.20;41.90;;;;;;5052659;28;20496;-75
2022/03/26 12:06:58;;;;;;;16.10;9.65;;;16.30;41.90;;;;;;5053351;28;20501;-75
2022/03/26 12:09:27;;;;;;;20.05;9.50;;;16.20;41.60;;;;;;5051950;28;20086;-75
2022/03/26 12:12:10;;;;;;;17.75;9.23;;;16.00;41.60;;;;;;5051098;28;20500;-75
2022/03/26 12:15:01;;;;;;;15.05;9.25;;;15.90;42.10;;;;;;5052519;28;20071;-75
2022/03/26 12:17:46;;;;;;;19.42;10.40;;;15.50;41.80;;;;;;5052005;28;20443;-75
2022/03/26 12:20:45;;;;;;;17.98;10.27;;;15.30;42.40;;;;;;5051798;28;20446;-75
2022/03/26 12:23:15;;;;;;;14.23;8.93;;;15.50;42.40;;;;;;5030310;28;20568;-75
2022/03/26 12:25:51;;;;;;;16.65;10.82;;;15.50;42.00;;;;;;5053377;28;20040;-75
2022/03/26 12:28:30;;;;;;;16.05;10.05;;;15.80;42.30;;;;;;5053184;28;20025;-75
2022/03/26 12:30:58;;;;;;;19.92;11.38;;;16.00;42.30;;;;;;5051712;28;20032;-75
2022/03/26 12:33:25;;;;;;;21.63;15.27;;;16.20;42.30;;;;;;5053203;28;20481;-75
2022/03/26 12:35:56;;;;;;;22.73;11.40;;;16.50;42.20;;;;;;5053332;28;20513;-74
2022/03/26 12:38:27;;;;;;;20.33;10.20;;;16.70;41.90;;;;;;5052239;28;20425;-74
2022/03/26 12:41:03;;;;;;;20.90;10.77;;;16.80;41.80;;;;;;5053466;28;20037;-74